シドニー の空港の天気 - METARとTAF

シドニー国際空港 ( YSSY / SYD ) - オーストラリア ニューサウスウェールズ州、Mascot
飛行場実況気象(Metar)
観測時間10/16 17:30 AEDT (10/16 06:30 UTC)
風向・風速北東 11m/s
視程10km以上
天気現象
少しの雲 雲底高度 610m
全天の8割程度の雲 雲底高度 9140m
気温22℃
湿度69%
気圧1019hPa
METARYSSY 160630Z 04021KT 9999 FEW020 BKN300 22/16 Q1019 NOSIG
過去の天気等 Google飛行場航空写真 Wunderground天気予報

過去48時間のMETAR

飛行場予報(TAF)
発表時間: 10/16 16:14 AEDT (10/16 05:14 UTC)
予報対象時間: 16日17時 AEDT ~ 17日23時 AEDT
風向・風速北東 10m/s
視程10km以上
全天の4割程度の雲 雲底高度 610m
16日19時 AEDT から
風向・風速北北東 6m/s
視程10km以上
天気現象弱いしゅう雨
全天の4割程度の雲 雲底高度 610m
17日10時 AEDT から
風向・風速北北東 10m/s
視程10km以上
天気現象弱いしゅう雨
全天の4割程度の雲 雲底高度 460m
全天の8割程度の雲 雲底高度 910m
17日15時 AEDT から
風向・風速北東 10m/s 瞬間風速 15m/s
視程10km以上
天気現象弱いしゅう雨
全天の4割程度の雲 雲底高度 610m
全天の8割程度の雲 雲底高度 1070m
17日19時 AEDT から
風向・風速北北東 8m/s
視程10km以上
天気現象弱いしゅう雨
全天の4割程度の雲 雲底高度 610m
全天の8割程度の雲 雲底高度 910m
17日14時 AEDT ~ 17日19時 AEDT に 確率 30% で一時的に
視程2000m
天気現象雷雨
全天の8割程度の雲 雲底高度 240m
全天の4割程度の積乱雲 雲底高度 1520m
TAF AMD YSSY 160514Z 1606/1712 04020KT 9999 SCT020
FM160800 02012KT 9999 -SHRA SCT020
FM162300 03020KT 9999 -SHRA SCT015 BKN030
FM170400 04020G30KT 9999 -SHRA SCT020 BKN035
FM170800 03015KT 9999 -SHRA SCT020 BKN030 INTER 1700/1712 4000 SHRA BKN010
PROB30 TEMPO 1703/1708 2000 TSRA BKN008 SCT050CB